Time;durP1;ratioP1;P1;durP2;ratioP2;P2;SDS_P1;SDS_P2;PMS_P1;PMS_P2;Temp;Humidity;BMP_temperature;BMP_pressure;BME280_temperature;BME280_humidity;BME280_pressure;Samples;Min_cycle;Max_cycle;Signal;HPM_P1;HPM_P2
2024/04/09 00:15:06;;;;;;;;;;;;;;;;;;;;;
2024/04/09 00:43:41;;;;;;;0.00;0.00;;;;;;;7.93;100.00;98191.53;4714008;30;20079;-77
2024/04/09 02:36:12;;;;;;;0.00;0.00;;;;;;;7.35;100.00;98255.44;4735709;27;20041;-78
2024/04/09 02:39:08;;;;;;;0.00;0.00;;;;;;;7.05;100.00;98227.63;4886306;29;20445;-79
2024/04/09 02:52:28;;;;;;;;;;;;;;;;;;;;;
2024/04/09 05:11:31;;;;;;;0.00;0.00;;;;;;;5.36;100.00;98586.44;4659650;27;20204;-80
2024/04/09 05:17:52;;;;;;;0.00;0.00;;;;;;;5.58;100.00;98680.19;4879304;29;20053;-78
2024/04/09 05:21:06;;;;;;;0.00;0.00;;;;;;;5.62;100.00;98688.56;4785229;29;20047;-78
2024/04/09 05:23:31;;;;;;;0.00;0.00;;;;;;;5.45;100.00;98675.31;4778985;29;20507;-78
2024/04/09 05:28:56;;;;;;;0.00;0.00;;;;;;;5.36;100.00;98710.31;4863993;29;20446;-78
2024/04/09 05:35:25;;;;;;;;;;;;;;;;;;;;;
2024/04/09 05:37:53;;;;;;;0.00;0.00;;;;;;;4.78;100.00;98684.34;4851358;29;20045;-78
2024/04/09 05:40:19;;;;;;;0.00;0.00;;;;;;;4.91;100.00;98748.00;4878350;29;20093;-78
2024/04/09 05:42:46;;;;;;;0.00;0.00;;;;;;;5.03;100.00;98726.06;4870169;29;20472;-78
2024/04/09 05:45:18;;;;;;;0.00;0.00;;;;;;;5.22;100.00;98796.78;4881553;29;20068;-77
2024/04/09 05:48:33;;;;;;;0.00;0.00;;;;;;;5.19;100.00;98759.38;4871394;29;20446;-77
2024/04/09 06:02:03;;;;;;;;;;;;;;;;;;;;;
2024/04/09 06:04:20;;;;;;;0.00;0.00;;;;;;;5.14;100.00;98789.19;4776802;29;20061;-77
2024/04/09 06:06:49;;;;;;;0.00;0.00;;;;;;;5.20;100.00;98812.50;4873708;29;20029;-78
2024/04/09 06:09:14;;;;;;;0.00;0.00;;;;;;;5.28;100.00;98828.22;4862349;29;20049;-77
2024/04/09 06:11:40;;;;;;;0.00;0.00;;;;;;;5.19;100.00;98856.94;4841780;29;20029;-78
2024/04/09 06:14:18;;;;;;;;;;;;;;;;;;;;;
2024/04/09 06:16:51;;;;;;;0.10;0.10;;;;;;;5.36;100.00;98887.34;4884171;29;20037;-78
2024/04/09 06:19:24;;;;;;;0.10;0.10;;;;;;;5.14;100.00;98862.34;4866451;29;20116;-77
2024/04/09 06:21:58;;;;;;;0.00;0.00;;;;;;;5.12;100.00;98856.41;4867893;29;20068;-76
2024/04/09 06:24:26;;;;;;;0.10;0.10;;;;;;;5.10;100.00;98875.63;4845481;29;20415;-77
2024/04/09 06:26:51;;;;;;;0.00;0.00;;;;;;;5.07;100.00;98876.97;4866648;29;20047;-77
2024/04/09 06:29:17;;;;;;;0.00;0.00;;;;;;;5.10;100.00;98885.66;4881748;29;20021;-77
2024/04/09 06:31:43;;;;;;;0.10;0.10;;;;;;;5.11;100.00;98909.78;4862549;29;20029;-78
2024/04/09 06:37:47;;;;;;;0.00;0.00;;;;;;;5.09;100.00;98921.97;4868995;29;20047;-76
2024/04/09 06:40:13;;;;;;;0.00;0.00;;;;;;;5.10;100.00;98956.13;4876484;29;20037;-75
2024/04/09 06:42:38;;;;;;;0.10;0.10;;;;;;;5.26;100.00;98982.19;4880070;29;20041;-76
2024/04/09 06:45:05;;;;;;;0.00;0.00;;;;;;;5.36;100.00;98997.63;4875644;29;20037;-75
2024/04/09 06:47:31;;;;;;;0.00;0.00;;;;;;;5.44;100.00;99004.47;4842081;29;20033;-76
2024/04/09 06:50:07;;;;;;;0.00;0.00;;;;;;;5.48;100.00;99019.94;4870770;29;20024;-76
2024/04/09 06:52:33;;;;;;;0.00;0.00;;;;;;;5.57;100.00;99003.94;4872807;29;20029;-76
2024/04/09 06:55:03;;;;;;;0.05;0.05;;;;;;;5.73;100.00;99012.94;4860596;29;20028;-76
2024/04/09 06:57:30;;;;;;;0.00;0.00;;;;;;;5.88;100.00;99018.38;4870335;29;20036;-75
2024/04/09 07:00:07;;;;;;;0.00;0.00;;;;;;;6.00;100.00;99025.47;4834561;29;20037;-76
2024/04/09 07:02:33;;;;;;;0.00;0.00;;;;;;;6.09;100.00;99005.69;4873106;29;20551;-76
2024/04/09 07:04:59;;;;;;;0.00;0.00;;;;;;;6.43;100.00;99026.84;4871476;29;20191;-75
2024/04/09 07:07:35;;;;;;;;;;;;;;;;;;;;;
2024/04/09 07:10:05;;;;;;;0.00;0.00;;;;;;;6.16;100.00;99031.72;4869802;29;20053;-75
2024/04/09 07:12:32;;;;;;;0.10;0.10;;;;;;;6.10;100.00;99039.06;4871237;29;20029;-75
2024/04/09 07:14:57;;;;;;;0.10;0.10;;;;;;;6.08;100.00;99055.59;4856228;29;20432;-74
2024/04/09 07:17:23;;;;;;;0.10;0.10;;;;;;;6.13;100.00;99059.41;4879305;29;20061;-75
2024/04/09 07:20:16;;;;;;;0.00;0.00;;;;;;;6.01;100.00;99076.75;4848708;29;20485;-75
2024/04/09 07:22:41;;;;;;;0.00;0.00;;;;;;;5.82;100.00;99070.19;4853892;29;20500;-76
2024/04/09 07:25:17;;;;;;;;;;;;;;;;;;;;;
2024/04/09 07:27:50;;;;;;;0.00;0.00;;;;;;;5.94;100.00;99095.16;4868356;29;20573;-75
2024/04/09 07:30:23;;;;;;;0.00;0.00;;;;;;;5.89;100.00;99087.84;4866140;29;20036;-76
2024/04/09 07:33:10;;;;;;;0.08;0.08;;;;;;;5.94;100.00;99123.13;4870257;29;20061;-74
2024/04/09 07:35:46;;;;;;;0.00;0.00;;;;;;;5.91;100.00;99122.84;4872286;29;20500;-76
2024/04/09 07:38:11;;;;;;;0.00;0.00;;;;;;;5.77;100.00;99123.34;4869148;29;20117;-75
2024/04/09 07:40:38;;;;;;;0.00;0.00;;;;;;;5.96;100.00;99196.13;4870849;29;20116;-76
2024/04/09 07:43:16;;;;;;;;;;;;;;;;;;;;;
2024/04/09 07:45:52;;;;;;;0.05;0.05;;;;;;;5.94;100.00;99157.56;4866219;29;20039;-75
2024/04/09 07:48:27;;;;;;;;;;;;;;;;;;;;;
2024/04/09 07:50:54;;;;;;;0.00;0.00;;;;;;;6.17;100.00;99185.38;4867481;29;20033;-75
2024/04/09 07:53:20;;;;;;;0.10;0.10;;;;;;;6.03;100.00;99164.16;4857158;29;20434;-76
2024/04/09 07:56:23;;;;;;;;;;;;;;;;;;;;;
2024/04/09 08:02:15;;;;;;;0.10;0.10;;;;;;;6.34;100.00;99172.38;4857265;29;20032;-76
2024/04/09 08:04:58;;;;;;;0.00;0.00;;;;;;;6.54;100.00;99196.06;4871215;29;20089;-75
2024/04/09 08:07:26;;;;;;;0.00;0.00;;;;;;;6.73;100.00;99226.22;4865309;29;20032;-75
2024/04/09 08:09:51;;;;;;;0.03;0.03;;;;;;;6.98;100.00;99228.16;4860552;29;21449;-75
2024/04/09 08:12:28;;;;;;;0.10;0.10;;;;;;;6.96;100.00;99213.19;4857680;29;20042;-75
2024/04/09 08:14:54;;;;;;;0.00;0.00;;;;;;;6.98;100.00;99221.91;4868909;29;20029;-75
2024/04/09 08:17:19;;;;;;;0.00;0.00;;;;;;;7.12;100.00;99242.00;4883557;29;20488;-76
2024/04/09 08:19:44;;;;;;;0.00;0.00;;;;;;;7.25;100.00;99248.78;4840505;29;20017;-76
2024/04/09 08:22:10;;;;;;;0.00;0.00;;;;;;;7.58;100.00;99249.31;4867285;29;20044;-74
2024/04/09 08:24:35;;;;;;;0.00;0.00;;;;;;;7.49;100.00;99249.06;4844768;29;20033;-76
2024/04/09 08:27:10;;;;;;;0.05;0.05;;;;;;;7.44;100.00;99262.66;4872825;29;20543;-76
2024/04/09 08:29:37;;;;;;;0.00;0.00;;;;;;;7.61;100.00;99294.22;4841910;29;20024;-76
2024/04/09 08:32:03;;;;;;;0.00;0.00;;;;;;;7.86;100.00;99291.44;4865429;29;20121;-76
2024/04/09 08:34:46;;;;;;;;;;;;;;;;;;;;;
2024/04/09 08:37:14;;;;;;;0.00;0.00;;;;;;;7.64;100.00;99299.09;4862647;29;20055;-75
2024/04/09 08:39:39;;;;;;;0.00;0.00;;;;;;;7.32;100.00;99303.72;4872249;29;20081;-76
2024/04/09 08:42:12;;;;;;;0.00;0.00;;;;;;;7.24;100.00;99314.34;4876268;29;20417;-75
2024/04/09 08:44:38;;;;;;;0.00;0.00;;;;;;;7.24;100.00;99327.94;4846972;29;20603;-76
2024/04/09 08:47:12;;;;;;;0.00;0.00;;;;;;;7.39;100.00;99335.28;4872455;29;20048;-77
2024/04/09 08:49:49;;;;;;;0.00;0.00;;;;;;;7.57;100.00;99344.81;4872979;29;20485;-75
2024/04/09 08:52:19;;;;;;;0.00;0.00;;;;;;;7.89;100.00;99360.03;4860076;29;20493;-77
2024/04/09 08:54:54;;;;;;;0.00;0.00;;;;;;;7.79;100.00;99342.59;4870996;29;20125;-76
2024/04/09 08:57:21;;;;;;;0.00;0.00;;;;;;;7.92;100.00;99376.63;4877774;29;20525;-74
2024/04/09 08:59:47;;;;;;;0.00;0.00;;;;;;;7.97;100.00;99363.03;4872408;29;20408;-74
2024/04/09 09:02:16;;;;;;;0.00;0.00;;;;;;;8.29;100.00;99401.88;4861224;29;20065;-75
2024/04/09 09:05:16;;;;;;;;;;;;;;;;;;;;;
2024/04/09 09:07:41;;;;;;;0.00;0.00;;;;;;;8.48;96.97;99383.06;4860001;29;20029;-75
2024/04/09 09:10:12;;;;;;;0.10;0.10;;;;;;;8.79;91.46;99396.56;4874368;29;20411;-76
2024/04/09 09:12:50;;;;;;;;;;;;;;;;;;;;;
2024/04/09 09:15:27;;;;;;;0.00;0.00;;;;;;;8.91;91.49;99418.88;4844287;29;20037;-74
2024/04/09 09:17:53;;;;;;;0.00;0.00;;;;;;;9.16;91.48;99468.97;4869776;29;20425;-75
2024/04/09 09:20:19;;;;;;;0.00;0.00;;;;;;;9.16;87.51;99458.84;4866346;29;20033;-75
2024/04/09 09:22:51;;;;;;;0.00;0.00;;;;;;;9.40;86.46;99445.38;4867608;29;20021;-76
2024/04/09 09:26:09;;;;;;;;;;;;;;;;;;;;;
2024/04/09 09:28:32;;;;;;;0.03;0.03;;;;;;;9.78;81.62;99480.31;4820878;29;20501;-75
2024/04/09 09:30:58;;;;;;;0.00;0.00;;;;;;;9.47;80.85;99441.50;4871706;29;20033;-75
2024/04/09 09:36:30;;;;;;;0.10;0.10;;;;;;;9.48;85.19;99497.72;4870958;29;20063;-75
2024/04/09 09:39:00;;;;;;;0.00;0.00;;;;;;;9.30;82.93;99496.44;4877602;29;20468;-76
2024/04/09 09:41:52;;;;;;;0.00;0.00;;;;;;;9.53;82.11;99506.66;4861616;29;20112;-75
2024/04/09 09:44:18;;;;;;;0.00;0.00;;;;;;;9.59;80.29;99494.66;4868520;29;20124;-75
2024/04/09 09:46:50;;;;;;;0.00;0.00;;;;;;;9.65;80.08;99480.97;4866221;29;20112;-76
2024/04/09 09:49:29;;;;;;;;;;;;;;;;;;;;;
2024/04/09 09:52:02;;;;;;;0.00;0.00;;;;;;;10.35;76.77;99529.91;4870741;29;20026;-75
2024/04/09 09:54:43;;;;;;;0.00;0.00;;;;;;;10.76;74.13;99525.97;4872059;29;20051;-75
2024/04/09 09:57:20;;;;;;;0.00;0.00;;;;;;;10.69;70.62;99509.91;4870000;29;20029;-75
2024/04/09 10:00:19;;;;;;;0.00;0.00;;;;;;;10.73;71.96;99510.16;4863213;29;20393;-75
2024/04/09 10:02:52;;;;;;;0.00;0.00;;;;;;;10.77;72.12;99561.22;4873696;29;20100;-76
2024/04/09 10:05:18;;;;;;;0.00;0.00;;;;;;;10.59;72.91;99560.03;4881413;29;20091;-77
2024/04/09 10:13:33;;;;;;;0.00;0.00;;;;;;;10.48;70.95;99583.09;4850125;29;20069;-77
2024/04/09 10:16:01;;;;;;;0.00;0.00;;;;;;;10.53;72.34;99582.22;4873041;29;20036;-75
2024/04/09 10:18:50;;;;;;;;;;;;;;;;;;;;;
2024/04/09 10:21:47;;;;;;;0.00;0.00;;;;;;;11.78;66.57;99618.97;4863475;29;20510;-75
2024/04/09 10:24:26;;;;;;;;;;;;;;;;;;;;;
2024/04/09 10:26:53;;;;;;;0.00;0.00;;;;;;;11.57;65.91;99615.66;4865278;29;20048;-75
2024/04/09 10:29:20;;;;;;;0.00;0.00;;;;;;;11.73;64.14;99630.78;4866963;29;20357;-76
2024/04/09 10:34:44;;;;;;;0.00;0.00;;;;;;;14.04;55.57;99601.34;4862049;29;20670;-75
2024/04/09 10:37:36;;;;;;;0.00;0.00;;;;;;;13.58;56.45;99651.75;4873809;29;20138;-76
2024/04/09 10:40:12;;;;;;;;;;;;;;;;;;;;;
2024/04/09 10:43:17;;;;;;;;;;;;;;;;;;;;;
2024/04/09 10:45:44;;;;;;;0.00;0.00;;;;;;;12.87;60.00;99665.66;4870375;29;20383;-76
2024/04/09 10:48:10;;;;;;;0.00;0.00;;;;;;;12.69;59.65;99654.41;4871963;29;20048;-75
2024/04/09 10:50:51;;;;;;;;;;;;;;;;;;;;;
2024/04/09 10:56:16;;;;;;;0.00;0.00;;;;;;;17.14;47.48;99743.38;4856357;29;20100;-76
2024/04/09 10:59:21;;;;;;;;;;;;;;;;;;;;;
2024/04/09 11:01:52;;;;;;;0.00;0.00;;;;;;;15.93;50.04;99722.75;4858759;29;20022;-75
2024/04/09 11:04:21;;;;;;;0.00;0.00;;;;;;;15.81;49.01;99743.47;4828252;29;20072;-75
2024/04/09 11:06:49;;;;;;;0.00;0.00;;;;;;;15.37;49.16;99731.38;4859728;29;20492;-75
2024/04/09 11:09:18;;;;;;;0.00;0.00;;;;;;;16.17;48.53;99734.19;4867469;29;20085;-76
2024/04/09 11:11:44;;;;;;;0.00;0.00;;;;;;;15.57;47.54;99762.31;4868858;29;20039;-76
2024/04/09 11:14:22;;;;;;;;;;;;;;;;;;;;;
2024/04/09 11:16:57;;;;;;;0.00;0.00;;;;;;;14.24;50.32;99775.25;4879305;29;20038;-75
2024/04/09 11:22:43;;;;;;;0.00;0.00;;;;;;;13.48;53.52;99814.00;4856636;29;20045;-75
2024/04/09 11:25:17;;;;;;;0.00;0.00;;;;;;;13.88;51.26;99760.25;4865865;29;20674;-75
2024/04/09 11:27:57;;;;;;;0.00;0.00;;;;;;;14.05;52.38;99773.41;4868584;29;20028;-75
2024/04/09 11:30:46;;;;;;;0.00;0.00;;;;;;;13.98;50.58;99833.47;4856934;29;20037;-76
2024/04/09 11:34:05;;;;;;;;;;;;;;;;;;;;;
2024/04/09 11:36:36;;;;;;;0.00;0.00;;;;;;;12.64;55.12;99783.38;4836787;29;20039;-74
2024/04/09 11:39:35;;;;;;;;;;;;;;;;;;;;;
2024/04/09 11:42:43;;;;;;;0.00;0.00;;;;;;;12.67;56.20;99823.94;4857027;29;20044;-76
2024/04/09 11:49:06;;;;;;;0.00;0.00;;;;;;;15.57;48.04;99836.69;4866916;29;20055;-75
2024/04/09 11:54:36;;;;;;;;;;;;;;;;;;;;;
2024/04/09 11:57:20;;;;;;;0.00;0.00;;;;;;;19.62;37.71;99863.25;4872450;29;20930;-76
2024/04/09 12:00:00;;;;;;;;;;;;;;;;;;;;;
2024/04/09 12:03:02;;;;;;;0.00;0.00;;;;;;;17.60;40.71;99896.63;4867841;29;20889;-76
2024/04/09 12:06:28;;;;;;;;;;;;;;;;;;;;;
2024/04/09 12:09:16;;;;;;;0.00;0.00;;;;;;;19.86;39.61;99906.16;4852576;29;20391;-74
2024/04/09 12:11:45;;;;;;;0.00;0.00;;;;;;;21.49;36.29;99892.78;4858360;29;20120;-75
2024/04/09 12:14:14;;;;;;;0.00;0.00;;;;;;;21.69;33.08;99916.03;4858211;29;20033;-75
2024/04/09 12:16:52;;;;;;;;;;;;;;;;;;;;;
2024/04/09 12:19:21;;;;;;;0.00;0.00;;;;;;;22.04;33.65;99887.56;4868104;29;20578;-75
2024/04/09 12:21:47;;;;;;;0.00;0.00;;;;;;;22.90;31.40;99927.97;4870113;29;20038;-75
2024/04/09 12:24:27;;;;;;;0.00;0.00;;;;;;;23.58;30.13;99932.28;4867345;29;20033;-75
2024/04/09 12:27:02;;;;;;;0.00;0.00;;;;;;;20.09;34.97;99898.22;4874755;29;20484;-76
2024/04/09 12:30:27;;;;;;;;;;;;;;;;;;;;;
2024/04/09 12:33:19;;;;;;;0.00;0.00;;;;;;;20.60;35.87;99961.84;4853846;29;20056;-75
2024/04/09 12:35:45;;;;;;;0.00;0.00;;;;;;;20.98;32.46;99935.72;4857317;29;20052;-75
2024/04/09 12:38:12;;;;;;;0.00;0.00;;;;;;;20.30;35.24;99925.94;4855665;29;20617;-75
2024/04/09 12:40:38;;;;;;;0.00;0.00;;;;;;;22.22;33.49;99966.81;4872859;29;20052;-76
2024/04/09 12:43:07;;;;;;;0.00;0.00;;;;;;;22.73;31.05;99968.97;4862511;29;20603;-78
2024/04/09 12:45:56;;;;;;;0.00;0.00;;;;;;;21.83;31.59;99976.84;4883574;29;20041;-77
2024/04/09 12:48:32;;;;;;;0.00;0.00;;;;;;;21.78;31.33;99950.88;4844995;29;20118;-75
2024/04/09 12:51:10;;;;;;;;;;;;;;;;;;;;;
2024/04/09 12:53:40;;;;;;;0.00;0.00;;;;;;;23.49;29.58;99993.88;4860584;29;20024;-76
2024/04/09 12:56:05;;;;;;;0.00;0.00;;;;;;;22.41;30.25;100002.38;4875834;29;20037;-75
2024/04/09 12:58:44;;;;;;;0.00;0.00;;;;;;;23.55;29.60;99990.81;4838693;29;20511;-75
2024/04/09 13:01:46;;;;;;;;;;;;;;;;;;;;;
2024/04/09 13:04:44;;;;;;;0.00;0.00;;;;;;;24.21;28.50;100009.41;4869785;29;20029;-74
2024/04/09 13:10:40;;;;;;;0.00;0.00;;;;;;;22.65;28.88;100015.34;4846007;29;20057;-76
2024/04/09 13:13:17;;;;;;;;;;;;;;;;;;;;;
2024/04/09 13:16:39;;;;;;;0.00;0.00;;;;;;;25.08;27.17;100027.75;4875811;29;20036;-76
2024/04/09 13:19:08;;;;;;;0.00;0.00;;;;;;;25.98;25.97;99991.84;4876034;29;20737;-75
2024/04/09 13:24:50;;;;;;;0.00;0.00;;;;;;;20.85;32.41;100034.16;4861068;29;20049;-75
2024/04/09 13:27:16;;;;;;;0.00;0.00;;;;;;;21.13;32.34;100039.88;4859702;29;20045;-76
2024/04/09 13:29:41;;;;;;;0.00;0.00;;;;;;;22.60;30.38;100064.97;4856984;29;20044;-75
2024/04/09 13:35:32;;;;;;;;;;;;;;;;;;;;;
2024/04/09 13:37:58;;;;;;;0.00;0.00;;;;;;;24.71;26.46;100033.91;4851157;29;20049;-75
2024/04/09 13:40:24;;;;;;;0.00;0.00;;;;;;;21.94;29.28;100034.44;4858914;29;20119;-75
2024/04/09 13:43:20;;;;;;;0.00;0.00;;;;;;;19.52;34.04;100091.06;4860591;29;20514;-76
2024/04/09 13:45:45;;;;;;;0.00;0.00;;;;;;;18.46;35.10;100073.97;4882486;29;20033;-76
2024/04/09 13:48:10;;;;;;;0.00;0.00;;;;;;;20.79;31.94;100058.56;4869965;29;20386;-75
2024/04/09 13:50:37;;;;;;;0.00;0.00;;;;;;;22.40;30.60;100100.22;4851683;29;20029;-75
2024/04/09 13:53:02;;;;;;;0.00;0.00;;;;;;;23.88;28.69;100080.50;4863426;29;20412;-76
2024/04/09 13:55:28;;;;;;;0.00;0.00;;;;;;;24.83;27.04;100092.44;4873266;29;20034;-75
2024/04/09 13:58:14;;;;;;;0.00;0.00;;;;;;;24.88;27.92;100094.94;4867591;29;20025;-76
2024/04/09 14:00:40;;;;;;;0.00;0.00;;;;;;;25.12;26.64;100095.75;4864745;29;20423;-75
2024/04/09 14:03:41;;;;;;;;;;;;;;;;;;;;;
2024/04/09 14:06:15;;;;;;;0.00;0.00;;;;;;;23.83;26.54;100088.34;4876333;29;20037;-75
2024/04/09 14:08:43;;;;;;;0.00;0.00;;;;;;;22.74;28.09;100082.06;4869327;29;20133;-75
2024/04/09 14:11:14;;;;;;;0.00;0.00;;;;;;;20.90;31.31;100097.84;4858851;29;20030;-75
2024/04/09 14:13:49;;;;;;;;;;;;;;;;;;;;;
2024/04/09 14:16:36;;;;;;;0.00;0.00;;;;;;;21.30;30.89;100111.09;4867829;29;20029;-75
2024/04/09 14:19:05;;;;;;;0.00;0.00;;;;;;;22.08;31.16;100139.84;4872067;29;20036;-75
2024/04/09 14:21:31;;;;;;;0.00;0.00;;;;;;;22.74;28.88;100118.28;4845339;29;20127;-75
2024/04/09 14:23:56;;;;;;;0.00;0.00;;;;;;;21.77;29.42;100149.63;4873994;29;20044;-75
2024/04/09 14:26:36;;;;;;;0.00;0.00;;;;;;;22.69;29.27;100129.69;4870823;29;20082;-74
2024/04/09 14:29:04;;;;;;;0.00;0.00;;;;;;;24.30;28.17;100165.63;4853388;29;20045;-73
2024/04/09 14:31:32;;;;;;;0.00;0.00;;;;;;;24.42;26.69;100145.13;4848677;29;20052;-75
2024/04/09 14:34:05;;;;;;;0.00;0.00;;;;;;;24.14;28.02;100134.16;4872553;29;20405;-74
2024/04/09 14:36:33;;;;;;;0.00;0.00;;;;;;;25.21;27.63;100166.25;4871868;29;20036;-75
2024/04/09 14:39:02;;;;;;;0.00;0.00;;;;;;;25.11;26.95;100136.09;4876721;29;20085;-74
2024/04/09 14:41:27;;;;;;;0.00;0.00;;;;;;;25.21;27.35;100174.63;4846048;29;20100;-75
2024/04/09 14:44:18;;;;;;;0.00;0.00;;;;;;;25.12;26.51;100160.09;4875746;29;20472;-75
2024/04/09 14:46:54;;;;;;;;;;;;;;;;;;;;;
2024/04/09 14:49:30;;;;;;;;;;;;;;;;;;;;;
2024/04/09 14:52:24;;;;;;;0.00;0.00;;;;;;;21.83;29.82;100196.69;4860212;29;20029;-75
2024/04/09 14:54:59;;;;;;;;;;;;;;;;;;;;;
2024/04/09 14:57:28;;;;;;;0.00;0.00;;;;;;;14.08;49.89;100196.19;4877578;29;20043;-74
2024/04/09 14:59:55;;;;;;;0.00;0.00;;;;;;;13.34;53.97;100215.69;4871199;29;20104;-75
2024/04/09 15:02:39;;;;;;;0.00;0.00;;;;;;;16.03;48.30;100200.38;4872790;29;20116;-75
2024/04/09 15:05:17;;;;;;;0.00;0.00;;;;;;;19.97;38.27;100201.47;4868396;29;20048;-74
2024/04/09 15:07:42;;;;;;;0.00;0.00;;;;;;;22.58;34.16;100214.97;4865050;29;20425;-74
2024/04/09 15:10:10;;;;;;;0.00;0.00;;;;;;;24.35;31.81;100215.63;4870101;29;20052;-75
2024/04/09 15:19:32;;;;;;;0.00;0.00;;;;;;;24.64;29.66;100218.28;4847331;29;20181;-75
2024/04/09 15:22:17;;;;;;;;;;;;;;;;;;;;;
2024/04/09 15:25:17;;;;;;;0.00;0.00;;;;;;;23.75;29.00;100226.16;4861032;29;20059;-75
2024/04/09 15:28:23;;;;;;;0.00;0.00;;;;;;;23.06;30.05;100218.75;4856267;29;20065;-75
2024/04/09 15:31:11;;;;;;;;;;;;;;;;;;;;;
2024/04/09 15:33:58;;;;;;;;;;;;;;;;;;;;;
2024/04/09 15:36:48;;;;;;;;;;;;;;;;;;;;;
2024/04/09 15:43:33;;;;;;;;;;;;;;;;;;;;;
2024/04/09 15:46:41;;;;;;;;;;;;;;;;;;;;;
2024/04/09 15:53:11;;;;;;;;;;;;;;;;;;;;;
2024/04/09 15:55:51;;;;;;;0.00;0.00;;;;;;;13.30;47.77;100239.31;4710778;30;20040;-75
2024/04/09 15:58:53;;;;;;;0.00;0.00;;;;;;;14.16;47.38;100323.13;4746230;30;20113;-75
2024/04/09 16:01:40;;;;;;;;;;;;;;;;;;;;;
2024/04/09 16:04:45;;;;;;;;;;;;;;;;;;;;;
2024/04/09 16:13:40;;;;;;;;;;;;;;;;;;;;;
2024/04/09 16:16:53;;;;;;;;;;;;;;;;;;;;;
2024/04/09 16:19:30;;;;;;;0.00;0.00;;;;;;;18.49;39.07;100321.66;4845382;29;20037;-74
2024/04/09 16:30:04;;;;;;;;;;;;;;;;;;;;;
2024/04/09 16:33:33;;;;;;;;;;;;;;;;;;;;;
2024/04/09 16:50:26;;;;;;;;;;;;;;;;;;;;;
2024/04/09 17:00:13;;;;;;;0.00;0.00;;;;;;;13.96;49.41;100446.78;4765010;29;20341;-75
2024/04/09 17:06:49;;;;;;;0.00;0.00;;;;;;;15.07;46.17;100424.97;4797361;29;20056;-76
2024/04/09 17:09:23;;;;;;;0.00;0.00;;;;;;;15.12;46.53;100465.38;4855290;29;20481;-78
2024/04/09 17:12:07;;;;;;;;;;;;;;;;;;;;;
2024/04/09 17:14:58;;;;;;;0.00;0.00;;;;;;;13.99;49.15;100478.38;4871822;29;20041;-76
2024/04/09 17:17:42;;;;;;;0.00;0.00;;;;;;;13.18;51.45;100442.88;4884990;29;20033;-76
2024/04/09 17:21:06;;;;;;;;;;;;;;;;;;;;;
2024/04/09 17:23:47;;;;;;;0.00;0.00;;;;;;;12.95;52.41;100440.81;4865225;29;20040;-75
2024/04/09 17:29:29;;;;;;;;;;;;;;;;;;;;;
2024/04/09 17:32:30;;;;;;;;;;;;;;;;;;;;;
2024/04/09 17:38:36;;;;;;;0.00;0.00;;;;;;;13.63;51.07;100543.78;4873486;29;20424;-76
2024/04/09 17:41:05;;;;;;;0.00;0.00;;;;;;;13.22;50.88;100531.03;4873938;29;20052;-78
2024/04/09 17:43:30;;;;;;;0.00;0.00;;;;;;;13.07;51.47;100535.47;4866943;29;20031;-76
2024/04/09 17:46:07;;;;;;;0.00;0.00;;;;;;;12.31;52.53;100537.28;4867846;29;20481;-76
2024/04/09 17:48:55;;;;;;;0.00;0.00;;;;;;;11.21;56.00;100506.38;4851300;29;20033;-76
2024/04/09 17:51:54;;;;;;;;;;;;;;;;;;;;;
2024/04/09 17:54:37;;;;;;;;;;;;;;;;;;;;;
2024/04/09 17:57:15;;;;;;;0.00;0.00;;;;;;;9.90;64.50;100581.47;4868009;29;20028;-75
2024/04/09 17:59:54;;;;;;;0.00;0.00;;;;;;;9.54;66.40;100556.50;4875817;29;20625;-76
2024/04/09 18:02:37;;;;;;;0.00;0.00;;;;;;;9.43;68.03;100561.03;4871590;29;20086;-75
2024/04/09 18:05:26;;;;;;;0.00;0.00;;;;;;;9.21;68.83;100558.31;4861231;29;20033;-78
2024/04/09 18:08:30;;;;;;;0.00;0.00;;;;;;;9.23;70.20;100568.97;4867668;29;20110;-76
2024/04/09 18:10:47;;;;;;;0.00;0.00;;;;;;;9.28;69.32;100552.66;4857148;29;20049;-76
2024/04/09 18:13:40;;;;;;;0.00;0.00;;;;;;;9.56;70.74;100630.81;4870597;29;20089;-75
2024/04/09 18:16:22;;;;;;;0.00;0.00;;;;;;;9.44;71.41;100616.44;4857476;29;20045;-75
2024/04/09 18:18:59;;;;;;;0.00;0.00;;;;;;;9.54;70.68;100586.53;4859744;29;20115;-75
2024/04/09 18:21:29;;;;;;;0.00;0.00;;;;;;;9.74;68.66;100596.06;4856505;29;20469;-74
2024/04/09 18:24:05;;;;;;;;;;;;;;;;;;;;;
2024/04/09 18:26:35;;;;;;;0.00;0.00;;;;;;;9.64;65.90;100629.53;4861285;29;20388;-75
2024/04/09 18:29:07;;;;;;;0.10;0.10;;;;;;;9.23;66.43;100618.91;4857911;29;20397;-76
2024/04/09 18:34:40;;;;;;;;;;;;;;;;;;;;;
2024/04/09 18:37:21;;;;;;;0.00;0.00;;;;;;;8.20;73.18;100608.28;4868493;29;20041;-76
2024/04/09 18:43:24;;;;;;;0.00;0.00;;;;;;;7.46;77.89;100596.31;4847747;29;20041;-76
2024/04/09 18:45:49;;;;;;;0.10;0.10;;;;;;;7.57;81.23;100634.59;4875827;29;20037;-75
2024/04/09 18:48:14;;;;;;;0.00;0.00;;;;;;;7.55;82.46;100663.94;4858038;29;20038;-75
2024/04/09 18:50:50;;;;;;;;;;;;;;;;;;;;;
2024/04/09 18:53:31;;;;;;;0.10;0.10;;;;;;;7.31;84.95;100666.69;4871959;29;20032;-76
2024/04/09 18:56:06;;;;;;;0.00;0.00;;;;;;;6.91;87.67;100611.16;4875546;29;20037;-76
2024/04/09 18:58:54;;;;;;;0.00;0.00;;;;;;;7.04;88.83;100650.88;4872283;29;20392;-74
2024/04/09 19:01:22;;;;;;;0.00;0.00;;;;;;;6.89;90.39;100642.38;4852377;29;20038;-76
2024/04/09 19:04:23;;;;;;;0.03;0.03;;;;;;;6.92;91.81;100655.47;4857522;29;20038;-75
2024/04/09 19:06:51;;;;;;;0.00;0.00;;;;;;;7.22;93.09;100711.66;4868536;29;20473;-75
2024/04/09 19:09:29;;;;;;;;;;;;;;;;;;;;;
2024/04/09 19:12:08;;;;;;;;;;;;;;;;;;;;;
2024/04/09 19:27:05;;;;;;;0.00;0.00;;;;;;;6.99;96.92;100718.72;5812469;21;15076068;-74
2024/04/09 19:30:09;;;;;;;;;;;;;;;;;;;;;
2024/04/09 19:33:26;;;;;;;0.08;0.08;;;;;;;7.16;96.90;100736.00;6472841;22;20009;-75
2024/04/09 19:36:28;;;;;;;;;;;;;;;;;;;;;
2024/04/09 19:38:57;;;;;;;0.00;0.00;;;;;;;6.92;96.91;100724.28;6449225;22;20424;-76
2024/04/09 19:41:22;;;;;;;0.10;0.10;;;;;;;6.80;97.62;100710.69;6433718;22;20291;-75
2024/04/09 19:47:49;;;;;;;0.00;0.00;;;;;;;7.11;97.76;100779.41;6280026;22;20435;-74
2024/04/09 19:53:39;;;;;;;;;;;;;;;;;;;;;
2024/04/09 19:59:49;;;;;;;0.00;0.00;;;;;;;6.92;99.27;100791.41;6319678;22;20003;-75
2024/04/09 20:02:23;;;;;;;0.00;0.00;;;;;;;6.96;99.71;100827.97;6287655;22;20004;-75
2024/04/09 20:05:19;;;;;;;;;;;;;;;;;;;;;
2024/04/09 20:07:57;;;;;;;;;;;;;;;;;;;;;
2024/04/09 20:14:22;;;;;;;0.00;0.00;;;;;;;6.69;100.00;100811.19;6198691;22;20021;-76
2024/04/09 20:17:08;;;;;;;0.00;0.00;;;;;;;6.69;100.00;100812.03;6286313;22;20011;-76
2024/04/09 20:23:15;;;;;;;;;;;;;;;;;;;;;
2024/04/09 20:26:29;;;;;;;;;;;;;;;;;;;;;
2024/04/09 20:30:00;;;;;;;0.00;0.00;;;;;;;6.73;100.00;100845.88;6152820;22;20004;-76
2024/04/09 20:33:12;;;;;;;0.00;0.00;;;;;;;6.97;99.96;100878.56;6183948;23;20002;-76
2024/04/09 20:36:34;;;;;;;;;;;;;;;;;;;;;
2024/04/09 20:42:37;;;;;;;;;;;;;;;;;;;;;
2024/04/09 20:45:44;;;;;;;;;;;;;;;;;;;;;
2024/04/09 20:48:30;;;;;;;;;;;;;;;;;;;;;
2024/04/09 20:51:19;;;;;;;0.00;0.00;;;;;;;6.53;100.00;100878.72;6474720;22;20009;-75
2024/04/09 20:57:13;;;;;;;;;;;;;;;6.74;100.00;100912.72;6317884;22;19992;-78
2024/04/09 21:00:01;;;;;;;0.00;0.00;;;;;;;6.43;100.00;100876.53;6404212;22;20030;-75
2024/04/09 21:03:34;;;;;;;0.00;0.00;;;;;;;6.69;100.00;100937.06;6314168;22;20336;-77
2024/04/09 21:06:08;;;;;;;0.00;0.00;;;;;;;6.62;100.00;100936.31;6264307;22;20012;-77
2024/04/09 21:08:35;;;;;;;0.00;0.00;;;;;;;6.54;100.00;100906.72;6229094;22;20017;-76
2024/04/09 21:28:18;;;;;;;0.00;0.00;;;;;;;6.35;100.00;100933.91;5876387;23;20083;-78
2024/04/09 21:41:58;;;;;;;0.00;0.00;;;;;;;6.20;99.75;100960.59;5996046;23;20026;-77
2024/04/09 21:44:27;;;;;;;0.00;0.00;;;;;;;6.11;99.31;100950.00;6068512;23;20299;-76
2024/04/09 21:46:55;;;;;;;0.00;0.00;;;;;;;6.08;99.36;100949.63;6179466;23;20485;-77
2024/04/09 21:49:23;;;;;;;0.00;0.00;;;;;;;6.17;99.46;100974.63;6177285;23;19999;-76
2024/04/09 21:52:45;;;;;;;;;;;;;;;;;;;;;
2024/04/09 21:55:13;;;;;;;0.00;0.00;;;;;;;5.97;99.57;100950.31;6471830;22;20009;-76
2024/04/09 21:57:50;;;;;;;0.00;0.00;;;;;;;5.87;99.45;100945.38;6388482;22;20017;-76
2024/04/09 22:00:33;;;;;;;;;;;;;;;;;;;;;
2024/04/09 22:02:59;;;;;;;0.00;0.00;;;;;;;5.91;99.82;100982.75;6473649;22;20455;-76
2024/04/09 22:05:28;;;;;;;0.00;0.00;;;;;;;5.91;100.00;100990.88;6427742;22;20389;-77
2024/04/09 22:11:15;;;;;;;0.00;0.00;;;;;;;6.00;100.00;101018.63;6454914;22;19993;-78
2024/04/09 22:20:45;;;;;;;0.00;0.00;;;;;;;5.68;100.00;101013.19;6133368;23;20331;-83
2024/04/09 22:23:20;;;;;;;0.00;0.00;;;;;;;5.85;100.00;101031.66;6300152;22;20001;-79
2024/04/09 22:25:56;;;;;;;0.00;0.00;;;;;;;5.56;100.00;100987.78;6428529;22;20005;-80
2024/04/09 22:28:24;;;;;;;0.00;0.00;;;;;;;5.85;100.00;101018.06;6431712;22;19998;-79